sensor_id;sensor_type;location;lat;lon;timestamp;P1;durP1;ratioP1;P2;durP2;ratioP2
49193;SDS011;35029;50.804;12.866;2022-10-16T00:01:47;1.05;;;0.60;;
49193;SDS011;35029;50.804;12.866;2022-10-16T00:04:13;0.70;;;0.70;;
49193;SDS011;35029;50.804;12.866;2022-10-16T00:06:38;0.50;;;0.50;;
49193;SDS011;35029;50.804;12.866;2022-10-16T00:09:04;0.63;;;0.63;;
49193;SDS011;35029;50.804;12.866;2022-10-16T00:11:31;0.52;;;0.52;;
49193;SDS011;35029;50.804;12.866;2022-10-16T00:13:59;0.88;;;0.70;;
49193;SDS011;35029;50.804;12.866;2022-10-16T00:16:26;1.20;;;0.65;;
49193;SDS011;35029;50.804;12.866;2022-10-16T00:18:53;0.40;;;0.40;;
49193;SDS011;35029;50.804;12.866;2022-10-16T00:21:19;0.98;;;0.50;;
49193;SDS011;35029;50.804;12.866;2022-10-16T00:23:50;0.70;;;0.60;;
49193;SDS011;35029;50.804;12.866;2022-10-16T00:26:20;3.08;;;0.55;;
49193;SDS011;35029;50.804;12.866;2022-10-16T00:28:49;1.02;;;0.65;;
49193;SDS011;35029;50.804;12.866;2022-10-16T00:31:17;2.80;;;0.60;;
49193;SDS011;35029;50.804;12.866;2022-10-16T00:33:44;0.60;;;0.60;;
49193;SDS011;35029;50.804;12.866;2022-10-16T00:36:10;1.17;;;0.68;;
49193;SDS011;35029;50.804;12.866;2022-10-16T00:38:38;0.88;;;0.68;;
49193;SDS011;35029;50.804;12.866;2022-10-16T00:41:04;1.25;;;1.05;;
49193;SDS011;35029;50.804;12.866;2022-10-16T00:46:04;1.00;;;0.60;;
49193;SDS011;35029;50.804;12.866;2022-10-16T00:50:59;3.22;;;0.70;;
49193;SDS011;35029;50.804;12.866;2022-10-16T00:53:25;0.50;;;0.50;;
49193;SDS011;35029;50.804;12.866;2022-10-16T00:55:51;0.63;;;0.57;;
49193;SDS011;35029;50.804;12.866;2022-10-16T00:58:17;1.05;;;0.80;;
49193;SDS011;35029;50.804;12.866;2022-10-16T01:00:43;0.85;;;0.50;;
49193;SDS011;35029;50.804;12.866;2022-10-16T01:05:57;0.60;;;0.50;;
49193;SDS011;35029;50.804;12.866;2022-10-16T01:08:43;0.60;;;0.50;;
49193;SDS011;35029;50.804;12.866;2022-10-16T01:11:17;0.52;;;0.52;;
49193;SDS011;35029;50.804;12.866;2022-10-16T01:13:53;0.68;;;0.60;;
49193;SDS011;35029;50.804;12.866;2022-10-16T01:22:09;0.50;;;0.50;;
49193;SDS011;35029;50.804;12.866;2022-10-16T01:24:39;0.50;;;0.50;;
49193;SDS011;35029;50.804;12.866;2022-10-16T01:30:10;0.63;;;0.60;;
49193;SDS011;35029;50.804;12.866;2022-10-16T01:32:40;5.97;;;0.93;;
49193;SDS011;35029;50.804;12.866;2022-10-16T01:37:51;0.75;;;0.50;;
49193;SDS011;35029;50.804;12.866;2022-10-16T01:40:24;0.55;;;0.55;;
49193;SDS011;35029;50.804;12.866;2022-10-16T01:42:54;0.50;;;0.50;;
49193;SDS011;35029;50.804;12.866;2022-10-16T01:45:25;0.70;;;0.57;;
49193;SDS011;35029;50.804;12.866;2022-10-16T01:47:53;0.60;;;0.60;;
49193;SDS011;35029;50.804;12.866;2022-10-16T01:50:19;0.60;;;0.60;;
49193;SDS011;35029;50.804;12.866;2022-10-16T01:52:47;1.45;;;0.60;;
49193;SDS011;35029;50.804;12.866;2022-10-16T01:55:18;0.60;;;0.60;;
49193;SDS011;35029;50.804;12.866;2022-10-16T01:57:49;0.50;;;0.50;;
49193;SDS011;35029;50.804;12.866;2022-10-16T02:00:18;0.50;;;0.50;;
49193;SDS011;35029;50.804;12.866;2022-10-16T02:02:47;0.70;;;0.70;;
49193;SDS011;35029;50.804;12.866;2022-10-16T02:05:16;1.50;;;0.50;;
49193;SDS011;35029;50.804;12.866;2022-10-16T02:07:48;1.13;;;0.68;;
49193;SDS011;35029;50.804;12.866;2022-10-16T02:10:14;0.68;;;0.68;;
49193;SDS011;35029;50.804;12.866;2022-10-16T02:12:41;0.50;;;0.50;;
49193;SDS011;35029;50.804;12.866;2022-10-16T02:15:10;0.57;;;0.57;;
49193;SDS011;35029;50.804;12.866;2022-10-16T02:17:36;1.15;;;0.68;;
49193;SDS011;35029;50.804;12.866;2022-10-16T02:20:02;1.17;;;0.70;;
49193;SDS011;35029;50.804;12.866;2022-10-16T02:22:32;0.73;;;0.60;;
49193;SDS011;35029;50.804;12.866;2022-10-16T02:28:05;1.42;;;0.60;;
49193;SDS011;35029;50.804;12.866;2022-10-16T02:30:50;2.05;;;0.50;;
49193;SDS011;35029;50.804;12.866;2022-10-16T02:33:22;0.50;;;0.50;;
49193;SDS011;35029;50.804;12.866;2022-10-16T02:35:50;0.55;;;0.55;;
49193;SDS011;35029;50.804;12.866;2022-10-16T02:38:17;1.17;;;0.60;;
49193;SDS011;35029;50.804;12.866;2022-10-16T02:40:44;0.90;;;0.50;;
49193;SDS011;35029;50.804;12.866;2022-10-16T02:43:10;0.70;;;0.70;;
49193;SDS011;35029;50.804;12.866;2022-10-16T02:45:36;0.60;;;0.60;;
49193;SDS011;35029;50.804;12.866;2022-10-16T02:48:01;0.93;;;0.65;;
49193;SDS011;35029;50.804;12.866;2022-10-16T02:50:27;0.70;;;0.70;;
49193;SDS011;35029;50.804;12.866;2022-10-16T02:52:53;0.70;;;0.70;;
49193;SDS011;35029;50.804;12.866;2022-10-16T02:55:18;1.52;;;0.77;;
49193;SDS011;35029;50.804;12.866;2022-10-16T02:57:43;1.08;;;0.70;;
49193;SDS011;35029;50.804;12.866;2022-10-16T03:00:09;0.60;;;0.60;;
49193;SDS011;35029;50.804;12.866;2022-10-16T03:02:37;1.08;;;0.80;;
49193;SDS011;35029;50.804;12.866;2022-10-16T03:05:03;0.80;;;0.80;;
49193;SDS011;35029;50.804;12.866;2022-10-16T03:07:28;3.30;;;0.70;;
49193;SDS011;35029;50.804;12.866;2022-10-16T03:09:54;0.60;;;0.60;;
49193;SDS011;35029;50.804;12.866;2022-10-16T03:12:21;0.85;;;0.70;;
49193;SDS011;35029;50.804;12.866;2022-10-16T03:14:47;0.60;;;0.60;;
49193;SDS011;35029;50.804;12.866;2022-10-16T03:17:13;1.92;;;0.60;;
49193;SDS011;35029;50.804;12.866;2022-10-16T03:19:38;0.80;;;0.70;;
49193;SDS011;35029;50.804;12.866;2022-10-16T03:22:04;0.80;;;0.80;;
49193;SDS011;35029;50.804;12.866;2022-10-16T03:24:30;0.70;;;0.70;;
49193;SDS011;35029;50.804;12.866;2022-10-16T03:26:55;0.70;;;0.70;;
49193;SDS011;35029;50.804;12.866;2022-10-16T03:29:21;0.70;;;0.70;;
49193;SDS011;35029;50.804;12.866;2022-10-16T03:31:46;0.98;;;0.70;;
49193;SDS011;35029;50.804;12.866;2022-10-16T03:34:13;0.80;;;0.75;;
49193;SDS011;35029;50.804;12.866;2022-10-16T03:36:39;0.60;;;0.60;;
49193;SDS011;35029;50.804;12.866;2022-10-16T03:39:04;0.65;;;0.65;;
49193;SDS011;35029;50.804;12.866;2022-10-16T03:41:29;0.70;;;0.70;;
49193;SDS011;35029;50.804;12.866;2022-10-16T03:43:55;3.22;;;0.65;;
49193;SDS011;35029;50.804;12.866;2022-10-16T03:46:20;1.42;;;0.70;;
49193;SDS011;35029;50.804;12.866;2022-10-16T03:48:46;1.70;;;0.52;;
49193;SDS011;35029;50.804;12.866;2022-10-16T03:51:12;0.70;;;0.70;;
49193;SDS011;35029;50.804;12.866;2022-10-16T03:53:37;0.80;;;0.77;;
49193;SDS011;35029;50.804;12.866;2022-10-16T03:56:03;0.93;;;0.80;;
49193;SDS011;35029;50.804;12.866;2022-10-16T03:58:29;0.98;;;0.80;;
49193;SDS011;35029;50.804;12.866;2022-10-16T04:00:55;0.50;;;0.50;;
49193;SDS011;35029;50.804;12.866;2022-10-16T04:03:20;1.63;;;0.77;;
49193;SDS011;35029;50.804;12.866;2022-10-16T04:05:46;3.30;;;1.02;;
49193;SDS011;35029;50.804;12.866;2022-10-16T04:08:12;0.63;;;0.63;;
49193;SDS011;35029;50.804;12.866;2022-10-16T04:10:37;0.60;;;0.60;;
49193;SDS011;35029;50.804;12.866;2022-10-16T04:13:03;1.30;;;0.70;;
49193;SDS011;35029;50.804;12.866;2022-10-16T04:15:28;1.25;;;0.70;;
49193;SDS011;35029;50.804;12.866;2022-10-16T04:17:54;1.63;;;0.95;;
49193;SDS011;35029;50.804;12.866;2022-10-16T04:20:19;0.52;;;0.52;;
49193;SDS011;35029;50.804;12.866;2022-10-16T04:22:45;3.30;;;0.65;;
49193;SDS011;35029;50.804;12.866;2022-10-16T04:25:10;1.40;;;0.90;;
49193;SDS011;35029;50.804;12.866;2022-10-16T04:27:37;0.63;;;0.63;;
49193;SDS011;35029;50.804;12.866;2022-10-16T04:30:03;1.65;;;0.60;;
49193;SDS011;35029;50.804;12.866;2022-10-16T04:32:29;0.80;;;0.50;;
49193;SDS011;35029;50.804;12.866;2022-10-16T04:34:54;0.50;;;0.50;;
49193;SDS011;35029;50.804;12.866;2022-10-16T04:37:24;0.80;;;0.80;;
49193;SDS011;35029;50.804;12.866;2022-10-16T04:39:50;0.43;;;0.43;;
49193;SDS011;35029;50.804;12.866;2022-10-16T04:42:16;0.60;;;0.60;;
49193;SDS011;35029;50.804;12.866;2022-10-16T04:44:42;0.40;;;0.40;;
49193;SDS011;35029;50.804;12.866;2022-10-16T04:47:07;0.88;;;0.70;;
49193;SDS011;35029;50.804;12.866;2022-10-16T04:49:33;0.45;;;0.40;;
49193;SDS011;35029;50.804;12.866;2022-10-16T04:51:58;0.60;;;0.60;;
49193;SDS011;35029;50.804;12.866;2022-10-16T04:54:24;0.50;;;0.50;;
49193;SDS011;35029;50.804;12.866;2022-10-16T04:56:49;1.10;;;0.60;;
49193;SDS011;35029;50.804;12.866;2022-10-16T04:59:17;1.23;;;0.57;;
49193;SDS011;35029;50.804;12.866;2022-10-16T05:01:43;2.10;;;0.57;;
49193;SDS011;35029;50.804;12.866;2022-10-16T05:04:09;1.05;;;0.70;;
49193;SDS011;35029;50.804;12.866;2022-10-16T05:06:35;0.73;;;0.40;;
49193;SDS011;35029;50.804;12.866;2022-10-16T05:09:00;0.75;;;0.75;;
49193;SDS011;35029;50.804;12.866;2022-10-16T05:11:26;0.98;;;0.70;;
49193;SDS011;35029;50.804;12.866;2022-10-16T05:13:51;0.70;;;0.70;;
49193;SDS011;35029;50.804;12.866;2022-10-16T05:16:17;2.47;;;0.88;;
49193;SDS011;35029;50.804;12.866;2022-10-16T05:18:43;2.13;;;1.13;;
49193;SDS011;35029;50.804;12.866;2022-10-16T05:21:08;0.60;;;0.57;;
49193;SDS011;35029;50.804;12.866;2022-10-16T05:23:34;0.85;;;0.80;;
49193;SDS011;35029;50.804;12.866;2022-10-16T05:25:59;4.00;;;0.90;;
49193;SDS011;35029;50.804;12.866;2022-10-16T05:28:26;0.93;;;0.57;;
49193;SDS011;35029;50.804;12.866;2022-10-16T05:30:52;0.70;;;0.50;;
49193;SDS011;35029;50.804;12.866;2022-10-16T05:33:21;0.75;;;0.75;;
49193;SDS011;35029;50.804;12.866;2022-10-16T05:35:47;0.60;;;0.50;;
49193;SDS011;35029;50.804;12.866;2022-10-16T05:38:13;0.90;;;0.75;;
49193;SDS011;35029;50.804;12.866;2022-10-16T05:40:38;0.40;;;0.40;;
49193;SDS011;35029;50.804;12.866;2022-10-16T05:43:04;0.65;;;0.63;;
49193;SDS011;35029;50.804;12.866;2022-10-16T05:45:30;0.65;;;0.65;;
49193;SDS011;35029;50.804;12.866;2022-10-16T05:47:55;0.77;;;0.63;;
49193;SDS011;35029;50.804;12.866;2022-10-16T05:50:21;0.40;;;0.40;;
49193;SDS011;35029;50.804;12.866;2022-10-16T05:52:46;1.42;;;0.60;;
49193;SDS011;35029;50.804;12.866;2022-10-16T05:55:12;1.02;;;0.70;;
49193;SDS011;35029;50.804;12.866;2022-10-16T05:57:37;0.77;;;0.60;;
49193;SDS011;35029;50.804;12.866;2022-10-16T06:00:03;0.65;;;0.60;;
49193;SDS011;35029;50.804;12.866;2022-10-16T06:02:37;0.70;;;0.70;;
49193;SDS011;35029;50.804;12.866;2022-10-16T06:05:03;0.70;;;0.70;;
49193;SDS011;35029;50.804;12.866;2022-10-16T06:07:33;2.30;;;0.80;;
49193;SDS011;35029;50.804;12.866;2022-10-16T06:09:59;0.55;;;0.55;;
49193;SDS011;35029;50.804;12.866;2022-10-16T06:12:26;0.70;;;0.70;;
49193;SDS011;35029;50.804;12.866;2022-10-16T06:14:51;0.85;;;0.65;;
49193;SDS011;35029;50.804;12.866;2022-10-16T06:17:17;0.77;;;0.60;;
49193;SDS011;35029;50.804;12.866;2022-10-16T06:19:43;0.70;;;0.70;;
49193;SDS011;35029;50.804;12.866;2022-10-16T06:22:08;0.63;;;0.50;;
49193;SDS011;35029;50.804;12.866;2022-10-16T06:24:34;0.60;;;0.60;;
49193;SDS011;35029;50.804;12.866;2022-10-16T06:26:59;0.95;;;0.60;;
49193;SDS011;35029;50.804;12.866;2022-10-16T06:29:25;0.52;;;0.50;;
49193;SDS011;35029;50.804;12.866;2022-10-16T06:31:50;1.45;;;0.70;;
49193;SDS011;35029;50.804;12.866;2022-10-16T06:34:16;0.70;;;0.70;;
49193;SDS011;35029;50.804;12.866;2022-10-16T06:36:41;0.75;;;0.75;;
49193;SDS011;35029;50.804;12.866;2022-10-16T06:39:08;1.05;;;0.80;;
49193;SDS011;35029;50.804;12.866;2022-10-16T06:41:33;1.08;;;0.80;;
49193;SDS011;35029;50.804;12.866;2022-10-16T06:44:11;0.70;;;0.70;;
49193;SDS011;35029;50.804;12.866;2022-10-16T06:46:37;0.73;;;0.70;;
49193;SDS011;35029;50.804;12.866;2022-10-16T06:49:02;0.63;;;0.63;;
49193;SDS011;35029;50.804;12.866;2022-10-16T06:51:28;0.52;;;0.50;;
49193;SDS011;35029;50.804;12.866;2022-10-16T06:53:55;0.70;;;0.68;;
49193;SDS011;35029;50.804;12.866;2022-10-16T06:56:25;0.70;;;0.70;;
49193;SDS011;35029;50.804;12.866;2022-10-16T06:58:52;1.02;;;1.00;;
49193;SDS011;35029;50.804;12.866;2022-10-16T07:01:19;1.17;;;1.00;;
49193;SDS011;35029;50.804;12.866;2022-10-16T07:03:46;1.35;;;1.25;;
49193;SDS011;35029;50.804;12.866;2022-10-16T07:06:13;1.50;;;0.98;;
49193;SDS011;35029;50.804;12.866;2022-10-16T07:08:41;1.23;;;1.05;;
49193;SDS011;35029;50.804;12.866;2022-10-16T07:11:08;0.75;;;0.75;;
49193;SDS011;35029;50.804;12.866;2022-10-16T07:13:36;0.70;;;0.70;;
49193;SDS011;35029;50.804;12.866;2022-10-16T07:16:13;1.02;;;0.93;;
49193;SDS011;35029;50.804;12.866;2022-10-16T07:18:44;1.25;;;1.10;;
49193;SDS011;35029;50.804;12.866;2022-10-16T07:23:40;1.77;;;1.08;;
49193;SDS011;35029;50.804;12.866;2022-10-16T07:26:06;0.90;;;0.90;;
49193;SDS011;35029;50.804;12.866;2022-10-16T07:28:34;1.80;;;1.00;;
49193;SDS011;35029;50.804;12.866;2022-10-16T07:31:04;1.67;;;1.08;;
49193;SDS011;35029;50.804;12.866;2022-10-16T07:33:32;1.02;;;0.95;;
49193;SDS011;35029;50.804;12.866;2022-10-16T07:35:59;1.55;;;1.13;;
49193;SDS011;35029;50.804;12.866;2022-10-16T07:38:24;1.30;;;1.00;;
49193;SDS011;35029;50.804;12.866;2022-10-16T07:40:57;6.43;;;1.40;;
49193;SDS011;35029;50.804;12.866;2022-10-16T07:43:27;2.08;;;0.90;;
49193;SDS011;35029;50.804;12.866;2022-10-16T07:45:53;1.60;;;1.10;;
49193;SDS011;35029;50.804;12.866;2022-10-16T07:48:20;1.20;;;1.10;;
49193;SDS011;35029;50.804;12.866;2022-10-16T07:50:46;3.70;;;1.02;;
49193;SDS011;35029;50.804;12.866;2022-10-16T07:53:12;2.00;;;1.00;;
49193;SDS011;35029;50.804;12.866;2022-10-16T07:55:38;1.35;;;1.08;;
49193;SDS011;35029;50.804;12.866;2022-10-16T07:58:03;2.35;;;0.80;;
49193;SDS011;35029;50.804;12.866;2022-10-16T08:00:29;2.20;;;0.90;;
49193;SDS011;35029;50.804;12.866;2022-10-16T08:02:56;1.15;;;0.93;;
49193;SDS011;35029;50.804;12.866;2022-10-16T08:05:25;0.85;;;0.85;;
49193;SDS011;35029;50.804;12.866;2022-10-16T08:07:51;2.95;;;1.20;;
49193;SDS011;35029;50.804;12.866;2022-10-16T08:10:17;1.90;;;1.05;;
49193;SDS011;35029;50.804;12.866;2022-10-16T08:12:44;2.85;;;0.93;;
49193;SDS011;35029;50.804;12.866;2022-10-16T08:15:10;1.58;;;1.00;;
49193;SDS011;35029;50.804;12.866;2022-10-16T08:17:35;0.80;;;0.80;;
49193;SDS011;35029;50.804;12.866;2022-10-16T08:20:01;1.40;;;1.13;;
49193;SDS011;35029;50.804;12.866;2022-10-16T08:22:27;2.45;;;1.10;;
49193;SDS011;35029;50.804;12.866;2022-10-16T08:24:53;5.13;;;1.27;;
49193;SDS011;35029;50.804;12.866;2022-10-16T08:27:19;1.75;;;1.10;;
49193;SDS011;35029;50.804;12.866;2022-10-16T08:29:44;1.52;;;1.00;;
49193;SDS011;35029;50.804;12.866;2022-10-16T08:32:10;1.30;;;1.10;;
49193;SDS011;35029;50.804;12.866;2022-10-16T08:34:35;2.30;;;1.08;;
49193;SDS011;35029;50.804;12.866;2022-10-16T08:37:01;2.88;;;1.23;;
49193;SDS011;35029;50.804;12.866;2022-10-16T08:39:27;1.33;;;1.02;;
49193;SDS011;35029;50.804;12.866;2022-10-16T08:47:18;3.78;;;1.30;;
49193;SDS011;35029;50.804;12.866;2022-10-16T08:49:55;1.77;;;1.10;;
49193;SDS011;35029;50.804;12.866;2022-10-16T08:52:23;3.83;;;1.10;;
49193;SDS011;35029;50.804;12.866;2022-10-16T08:57:21;2.47;;;1.17;;
49193;SDS011;35029;50.804;12.866;2022-10-16T08:59:47;0.90;;;0.90;;
49193;SDS011;35029;50.804;12.866;2022-10-16T09:02:23;1.20;;;1.10;;
49193;SDS011;35029;50.804;12.866;2022-10-16T09:07:21;2.03;;;0.93;;
49193;SDS011;35029;50.804;12.866;2022-10-16T09:10:19;1.55;;;1.08;;
49193;SDS011;35029;50.804;12.866;2022-10-16T09:15:35;1.10;;;1.00;;
49193;SDS011;35029;50.804;12.866;2022-10-16T09:23:27;1.15;;;1.02;;
49193;SDS011;35029;50.804;12.866;2022-10-16T09:25:55;1.45;;;0.88;;
49193;SDS011;35029;50.804;12.866;2022-10-16T09:28:23;1.10;;;1.00;;
49193;SDS011;35029;50.804;12.866;2022-10-16T09:30:48;1.00;;;0.90;;
49193;SDS011;35029;50.804;12.866;2022-10-16T09:33:15;3.28;;;1.20;;
49193;SDS011;35029;50.804;12.866;2022-10-16T09:35:43;5.25;;;1.05;;
49193;SDS011;35029;50.804;12.866;2022-10-16T09:38:20;1.23;;;0.90;;
49193;SDS011;35029;50.804;12.866;2022-10-16T09:40:48;1.35;;;0.80;;
49193;SDS011;35029;50.804;12.866;2022-10-16T09:46:00;1.08;;;0.95;;
49193;SDS011;35029;50.804;12.866;2022-10-16T09:48:37;1.15;;;0.88;;
49193;SDS011;35029;50.804;12.866;2022-10-16T09:51:25;1.48;;;0.90;;
49193;SDS011;35029;50.804;12.866;2022-10-16T09:56:37;2.38;;;0.88;;
49193;SDS011;35029;50.804;12.866;2022-10-16T09:59:11;0.90;;;0.85;;
49193;SDS011;35029;50.804;12.866;2022-10-16T10:01:37;1.00;;;0.90;;
49193;SDS011;35029;50.804;12.866;2022-10-16T10:04:05;1.33;;;1.13;;
49193;SDS011;35029;50.804;12.866;2022-10-16T10:06:33;2.00;;;0.95;;
49193;SDS011;35029;50.804;12.866;2022-10-16T10:09:23;1.55;;;1.15;;
49193;SDS011;35029;50.804;12.866;2022-10-16T10:11:52;1.77;;;1.15;;
49193;SDS011;35029;50.804;12.866;2022-10-16T10:16:47;1.00;;;1.00;;
49193;SDS011;35029;50.804;12.866;2022-10-16T10:19:19;1.00;;;0.90;;
49193;SDS011;35029;50.804;12.866;2022-10-16T10:21:47;1.85;;;1.00;;
49193;SDS011;35029;50.804;12.866;2022-10-16T10:24:14;1.85;;;1.30;;
49193;SDS011;35029;50.804;12.866;2022-10-16T10:26:43;1.95;;;1.10;;
49193;SDS011;35029;50.804;12.866;2022-10-16T10:31:45;4.00;;;1.00;;
49193;SDS011;35029;50.804;12.866;2022-10-16T10:37:50;2.22;;;0.98;;
49193;SDS011;35029;50.804;12.866;2022-10-16T10:45:58;3.13;;;1.25;;
49193;SDS011;35029;50.804;12.866;2022-10-16T10:51:19;3.33;;;0.90;;
49193;SDS011;35029;50.804;12.866;2022-10-16T11:01:26;1.23;;;1.10;;
49193;SDS011;35029;50.804;12.866;2022-10-16T11:06:49;2.15;;;1.10;;
49193;SDS011;35029;50.804;12.866;2022-10-16T11:09:21;2.20;;;1.00;;
49193;SDS011;35029;50.804;12.866;2022-10-16T11:12:01;1.25;;;1.13;;
49193;SDS011;35029;50.804;12.866;2022-10-16T11:17:45;1.83;;;1.10;;
49193;SDS011;35029;50.804;12.866;2022-10-16T11:20:17;1.90;;;1.23;;
49193;SDS011;35029;50.804;12.866;2022-10-16T11:25:31;0.95;;;0.90;;
49193;SDS011;35029;50.804;12.866;2022-10-16T11:30:47;1.73;;;0.90;;
49193;SDS011;35029;50.804;12.866;2022-10-16T11:35:50;1.85;;;1.13;;
49193;SDS011;35029;50.804;12.866;2022-10-16T11:38:31;1.95;;;1.20;;
49193;SDS011;35029;50.804;12.866;2022-10-16T11:41:13;1.73;;;1.20;;
49193;SDS011;35029;50.804;12.866;2022-10-16T11:43:54;6.30;;;1.08;;
49193;SDS011;35029;50.804;12.866;2022-10-16T11:46:30;2.25;;;1.10;;
49193;SDS011;35029;50.804;12.866;2022-10-16T11:49:03;0.88;;;0.82;;
49193;SDS011;35029;50.804;12.866;2022-10-16T11:51:38;2.63;;;1.13;;
49193;SDS011;35029;50.804;12.866;2022-10-16T11:54:09;2.92;;;1.00;;
49193;SDS011;35029;50.804;12.866;2022-10-16T11:56:46;1.63;;;0.80;;
49193;SDS011;35029;50.804;12.866;2022-10-16T12:04:56;0.70;;;0.70;;
49193;SDS011;35029;50.804;12.866;2022-10-16T12:07:36;2.53;;;1.20;;
49193;SDS011;35029;50.804;12.866;2022-10-16T12:10:26;4.80;;;0.80;;
49193;SDS011;35029;50.804;12.866;2022-10-16T12:12:53;0.90;;;0.80;;
49193;SDS011;35029;50.804;12.866;2022-10-16T12:17:45;2.20;;;0.80;;
49193;SDS011;35029;50.804;12.866;2022-10-16T12:22:36;2.72;;;0.70;;
49193;SDS011;35029;50.804;12.866;2022-10-16T12:25:17;1.20;;;0.73;;
49193;SDS011;35029;50.804;12.866;2022-10-16T12:27:53;0.97;;;0.77;;
49193;SDS011;35029;50.804;12.866;2022-10-16T12:30:23;3.53;;;1.00;;
49193;SDS011;35029;50.804;12.866;2022-10-16T12:32:55;1.23;;;1.10;;
49193;SDS011;35029;50.804;12.866;2022-10-16T12:35:24;0.93;;;0.70;;
49193;SDS011;35029;50.804;12.866;2022-10-16T12:38:06;2.13;;;1.00;;
49193;SDS011;35029;50.804;12.866;2022-10-16T12:40:37;1.25;;;0.70;;
49193;SDS011;35029;50.804;12.866;2022-10-16T12:43:24;1.35;;;0.68;;
49193;SDS011;35029;50.804;12.866;2022-10-16T12:45:58;0.60;;;0.60;;
49193;SDS011;35029;50.804;12.866;2022-10-16T12:48:25;5.00;;;1.00;;
49193;SDS011;35029;50.804;12.866;2022-10-16T12:50:51;2.88;;;1.00;;
49193;SDS011;35029;50.804;12.866;2022-10-16T12:53:26;2.72;;;0.90;;
49193;SDS011;35029;50.804;12.866;2022-10-16T13:01:16;0.85;;;0.70;;
49193;SDS011;35029;50.804;12.866;2022-10-16T13:09:13;1.15;;;0.73;;
49193;SDS011;35029;50.804;12.866;2022-10-16T13:12:06;0.70;;;0.60;;
49193;SDS011;35029;50.804;12.866;2022-10-16T13:20:26;0.80;;;0.80;;
49193;SDS011;35029;50.804;12.866;2022-10-16T13:23:15;1.73;;;0.90;;
49193;SDS011;35029;50.804;12.866;2022-10-16T13:26:10;0.93;;;0.75;;
49193;SDS011;35029;50.804;12.866;2022-10-16T13:28:38;1.20;;;0.90;;
49193;SDS011;35029;50.804;12.866;2022-10-16T13:31:04;0.85;;;0.82;;
49193;SDS011;35029;50.804;12.866;2022-10-16T13:33:36;2.35;;;0.80;;
49193;SDS011;35029;50.804;12.866;2022-10-16T13:36:05;1.38;;;0.90;;
49193;SDS011;35029;50.804;12.866;2022-10-16T13:38:32;3.75;;;0.90;;
49193;SDS011;35029;50.804;12.866;2022-10-16T13:41:02;1.23;;;0.70;;
49193;SDS011;35029;50.804;12.866;2022-10-16T13:43:51;3.53;;;1.00;;
49193;SDS011;35029;50.804;12.866;2022-10-16T13:46:24;0.60;;;0.60;;
49193;SDS011;35029;50.804;12.866;2022-10-16T13:49:01;1.35;;;0.85;;
49193;SDS011;35029;50.804;12.866;2022-10-16T13:51:29;1.20;;;0.82;;
49193;SDS011;35029;50.804;12.866;2022-10-16T13:53:56;1.58;;;0.90;;
49193;SDS011;35029;50.804;12.866;2022-10-16T13:56:22;1.10;;;0.90;;
49193;SDS011;35029;50.804;12.866;2022-10-16T13:59:05;10.95;;;1.23;;
49193;SDS011;35029;50.804;12.866;2022-10-16T14:01:47;0.70;;;0.70;;
49193;SDS011;35029;50.804;12.866;2022-10-16T14:04:13;1.92;;;1.10;;
49193;SDS011;35029;50.804;12.866;2022-10-16T14:06:40;1.45;;;1.00;;
49193;SDS011;35029;50.804;12.866;2022-10-16T14:11:50;2.67;;;1.20;;
49193;SDS011;35029;50.804;12.866;2022-10-16T14:14:19;1.20;;;0.80;;
49193;SDS011;35029;50.804;12.866;2022-10-16T14:16:45;4.32;;;0.90;;
49193;SDS011;35029;50.804;12.866;2022-10-16T14:19:25;2.78;;;0.80;;
49193;SDS011;35029;50.804;12.866;2022-10-16T14:21:54;1.88;;;0.80;;
49193;SDS011;35029;50.804;12.866;2022-10-16T14:26:56;0.80;;;0.80;;
49193;SDS011;35029;50.804;12.866;2022-10-16T14:29:23;1.08;;;0.88;;
49193;SDS011;35029;50.804;12.866;2022-10-16T14:31:59;1.00;;;0.80;;
49193;SDS011;35029;50.804;12.866;2022-10-16T14:34:26;1.50;;;0.88;;
49193;SDS011;35029;50.804;12.866;2022-10-16T14:36:58;1.48;;;1.00;;
49193;SDS011;35029;50.804;12.866;2022-10-16T14:39:27;1.25;;;0.70;;
49193;SDS011;35029;50.804;12.866;2022-10-16T14:41:55;0.82;;;0.70;;
49193;SDS011;35029;50.804;12.866;2022-10-16T14:44:27;1.75;;;0.90;;
49193;SDS011;35029;50.804;12.866;2022-10-16T14:46:56;1.90;;;0.93;;
49193;SDS011;35029;50.804;12.866;2022-10-16T14:49:22;1.58;;;1.00;;
49193;SDS011;35029;50.804;12.866;2022-10-16T14:51:49;5.88;;;0.70;;
49193;SDS011;35029;50.804;12.866;2022-10-16T14:54:15;0.80;;;0.80;;
49193;SDS011;35029;50.804;12.866;2022-10-16T14:56:49;0.68;;;0.60;;
49193;SDS011;35029;50.804;12.866;2022-10-16T15:02:51;1.00;;;0.90;;
49193;SDS011;35029;50.804;12.866;2022-10-16T15:04:56;3.90;;;1.10;;
49193;SDS011;35029;50.804;12.866;2022-10-16T15:07:23;1.10;;;1.00;;
49193;SDS011;35029;50.804;12.866;2022-10-16T15:09:48;1.50;;;1.13;;
49193;SDS011;35029;50.804;12.866;2022-10-16T15:12:14;1.40;;;0.85;;
49193;SDS011;35029;50.804;12.866;2022-10-16T15:14:40;1.20;;;1.10;;
49193;SDS011;35029;50.804;12.866;2022-10-16T15:17:07;1.45;;;0.90;;
49193;SDS011;35029;50.804;12.866;2022-10-16T15:19:35;1.48;;;0.90;;
49193;SDS011;35029;50.804;12.866;2022-10-16T15:22:00;3.13;;;1.00;;
49193;SDS011;35029;50.804;12.866;2022-10-16T15:24:26;0.90;;;0.90;;
49193;SDS011;35029;50.804;12.866;2022-10-16T15:26:51;1.23;;;0.90;;
49193;SDS011;35029;50.804;12.866;2022-10-16T15:29:18;1.23;;;1.10;;
49193;SDS011;35029;50.804;12.866;2022-10-16T15:31:43;2.67;;;1.10;;
49193;SDS011;35029;50.804;12.866;2022-10-16T15:34:10;1.90;;;0.90;;
49193;SDS011;35029;50.804;12.866;2022-10-16T15:36:36;1.45;;;1.00;;
49193;SDS011;35029;50.804;12.866;2022-10-16T15:39:03;3.15;;;1.20;;
49193;SDS011;35029;50.804;12.866;2022-10-16T15:41:30;3.13;;;1.20;;
49193;SDS011;35029;50.804;12.866;2022-10-16T15:43:56;1.20;;;1.10;;
49193;SDS011;35029;50.804;12.866;2022-10-16T15:46:22;2.83;;;1.30;;
49193;SDS011;35029;50.804;12.866;2022-10-16T15:48:50;1.30;;;1.20;;
49193;SDS011;35029;50.804;12.866;2022-10-16T15:51:16;1.23;;;0.80;;
49193;SDS011;35029;50.804;12.866;2022-10-16T15:53:42;1.35;;;1.00;;
49193;SDS011;35029;50.804;12.866;2022-10-16T15:56:11;1.70;;;0.82;;
49193;SDS011;35029;50.804;12.866;2022-10-16T15:58:37;1.15;;;1.05;;
49193;SDS011;35029;50.804;12.866;2022-10-16T16:01:05;4.13;;;1.77;;
49193;SDS011;35029;50.804;12.866;2022-10-16T16:03:31;3.63;;;2.03;;
49193;SDS011;35029;50.804;12.866;2022-10-16T16:05:57;2.58;;;1.88;;
49193;SDS011;35029;50.804;12.866;2022-10-16T16:08:24;1.95;;;1.67;;
49193;SDS011;35029;50.804;12.866;2022-10-16T16:10:59;2.67;;;2.00;;
49193;SDS011;35029;50.804;12.866;2022-10-16T16:13:26;2.33;;;2.13;;
49193;SDS011;35029;50.804;12.866;2022-10-16T16:15:51;1.83;;;1.67;;
49193;SDS011;35029;50.804;12.866;2022-10-16T16:18:17;1.83;;;1.58;;
49193;SDS011;35029;50.804;12.866;2022-10-16T16:20:42;1.50;;;1.40;;
49193;SDS011;35029;50.804;12.866;2022-10-16T16:23:08;2.42;;;2.03;;
49193;SDS011;35029;50.804;12.866;2022-10-16T16:25:33;2.72;;;2.10;;
49193;SDS011;35029;50.804;12.866;2022-10-16T16:27:59;2.63;;;2.10;;
49193;SDS011;35029;50.804;12.866;2022-10-16T16:30:24;4.00;;;3.25;;
49193;SDS011;35029;50.804;12.866;2022-10-16T16:32:50;6.20;;;3.22;;
49193;SDS011;35029;50.804;12.866;2022-10-16T16:35:16;3.47;;;2.83;;
49193;SDS011;35029;50.804;12.866;2022-10-16T16:37:41;3.83;;;2.97;;
49193;SDS011;35029;50.804;12.866;2022-10-16T16:40:07;2.67;;;2.47;;
49193;SDS011;35029;50.804;12.866;2022-10-16T16:42:33;3.20;;;2.70;;
49193;SDS011;35029;50.804;12.866;2022-10-16T16:44:58;4.82;;;2.70;;